Time;durP1;ratioP1;P1;durP2;ratioP2;P2;SDS_P1;SDS_P2;PMS_P1;PMS_P2;Temp;Humidity;BMP_temperature;BMP_pressure;BME280_temperature;BME280_humidity;BME280_pressure;Samples;Min_cycle;Max_cycle;Signal;HPM_P1;HPM_P2
2022/01/10 00:00:11;;;;;;;42.50;16.95;;;;;;;1.53;100.00;99490.16;5011669;28;20026;-72
2022/01/10 00:02:36;;;;;;;42.20;17.15;;;;;;;1.50;100.00;99490.19;5013116;28;20025;-73
2022/01/10 00:05:02;;;;;;;35.72;16.42;;;;;;;1.64;100.00;99485.72;5013014;28;20040;-72
2022/01/10 00:07:27;;;;;;;37.70;16.77;;;;;;;1.58;100.00;99493.66;5011791;28;20480;-72
2022/01/10 00:09:52;;;;;;;37.33;16.42;;;;;;;1.48;100.00;99497.22;5013270;28;20032;-72
2022/01/10 00:12:18;;;;;;;41.17;15.98;;;;;;;1.43;100.00;99499.88;5013425;28;20018;-72
2022/01/10 00:14:43;;;;;;;41.45;15.75;;;;;;;1.55;100.00;99501.56;5013136;28;20025;-73
2022/01/10 00:17:08;;;;;;;34.75;15.57;;;;;;;1.59;100.00;99507.69;5012938;28;20030;-72
2022/01/10 00:19:34;;;;;;;41.15;15.75;;;;;;;1.48;100.00;99507.72;5012940;28;20022;-73
2022/01/10 00:21:59;;;;;;;32.85;15.55;;;;;;;1.60;100.00;99515.56;5013090;28;20029;-73
2022/01/10 00:24:24;;;;;;;39.45;15.55;;;;;;;1.56;100.00;99521.72;5015928;28;20025;-73
2022/01/10 00:26:49;;;;;;;34.72;15.80;;;;;;;1.68;100.00;99526.03;5017106;28;20033;-74
2022/01/10 00:29:15;;;;;;;42.97;17.30;;;;;;;1.67;100.00;99525.19;5016984;28;20028;-73
2022/01/10 00:31:40;;;;;;;39.53;15.60;;;;;;;1.83;100.00;99526.84;5016807;28;20057;-73
2022/01/10 00:34:06;;;;;;;35.85;15.05;;;;;;;1.82;100.00;99531.25;5017005;28;20025;-72
2022/01/10 00:36:31;;;;;;;38.67;15.15;;;;;;;1.76;100.00;99541.78;5015508;28;20475;-72
2022/01/10 00:38:56;;;;;;;37.55;15.02;;;;;;;1.95;100.00;99544.31;5016818;28;20045;-73
2022/01/10 00:41:22;;;;;;;36.63;14.65;;;;;;;1.78;100.00;99547.91;5015273;28;20014;-73
2022/01/10 00:43:49;;;;;;;30.73;14.95;;;;;;;1.90;100.00;99560.16;5015404;28;20055;-74
2022/01/10 00:46:16;;;;;;;33.50;14.45;;;;;;;1.93;100.00;99561.91;5016637;28;20525;-73
2022/01/10 00:48:42;;;;;;;36.15;14.85;;;;;;;1.76;100.00;99565.47;5015307;28;20030;-73
2022/01/10 00:51:07;;;;;;;38.13;14.65;;;;;;;1.87;100.00;99557.53;5016485;28;20029;-72
2022/01/10 00:53:33;;;;;;;38.28;14.82;;;;;;;1.86;100.00;99572.44;5016639;28;20033;-73
2022/01/10 00:55:58;;;;;;;31.88;16.23;;;;;;;1.91;100.00;99569.78;5016532;28;20102;-73
2022/01/10 00:58:23;;;;;;;35.15;15.10;;;;;;;1.76;100.00;99576.91;5015157;28;20121;-73
2022/01/10 01:00:51;;;;;;;38.40;16.08;;;;;;;1.74;100.00;99573.41;5015938;28;20104;-73
2022/01/10 01:03:17;;;;;;;37.78;16.35;;;;;;;1.64;100.00;99583.09;5014861;28;20030;-73
2022/01/10 01:05:44;;;;;;;35.92;14.90;;;;;;;1.84;100.00;99581.25;5016594;28;20079;-74
2022/01/10 01:08:11;;;;;;;34.03;15.20;;;;;;;1.78;100.00;99590.03;5016189;28;20025;-73
2022/01/10 01:13:24;;;;;;;39.58;16.23;;;;;;;1.64;100.00;99601.53;5016179;28;20112;-73
2022/01/10 01:16:09;;;;;;;35.58;14.77;;;;;;;1.58;100.00;99609.44;5015743;28;20030;-72
2022/01/10 01:24:01;;;;;;;33.65;14.88;;;;;;;1.54;100.00;99623.50;5016203;28;20091;-73
2022/01/10 01:26:27;;;;;;;39.55;14.85;;;;;;;1.65;100.00;99626.94;5015719;28;20026;-72
2022/01/10 01:28:53;;;;;;;35.97;15.20;;;;;;;1.62;100.00;99629.63;5015772;28;20026;-72
2022/01/10 01:31:18;;;;;;;41.70;15.80;;;;;;;1.55;100.00;99626.13;5015621;28;20018;-72
2022/01/10 01:33:43;;;;;;;36.28;14.68;;;;;;;1.53;100.00;99637.53;5015415;28;20048;-72
2022/01/10 01:36:09;;;;;;;31.00;14.27;;;;;;;1.74;100.00;99640.97;5015486;28;20101;-72
2022/01/10 01:38:35;;;;;;;37.30;15.63;;;;;;;1.58;100.00;99651.53;5014176;28;20032;-73
2022/01/10 01:41:19;;;;;;;33.05;14.82;;;;;;;1.72;100.00;99654.16;5015247;28;20461;-73
2022/01/10 01:43:46;;;;;;;35.25;15.43;;;;;;;1.61;100.00;99651.53;5015528;28;20026;-73
2022/01/10 01:46:11;;;;;;;35.80;15.27;;;;;;;1.49;100.00;99654.22;5015528;28;20029;-73
2022/01/10 01:48:37;;;;;;;37.83;15.88;;;;;;;1.52;100.00;99662.09;5015570;28;20041;-73
2022/01/10 01:51:03;;;;;;;36.72;15.10;;;;;;;1.58;100.00;99667.34;5013862;28;20021;-73
2022/01/10 01:53:30;;;;;;;35.25;15.38;;;;;;;1.58;100.00;99672.59;5015521;28;20030;-73
2022/01/10 01:55:56;;;;;;;38.55;15.63;;;;;;;1.77;100.00;99683.97;5013905;28;20025;-72
2022/01/10 01:58:21;;;;;;;34.88;15.63;;;;;;;1.74;100.00;99683.09;5015099;28;20479;-73
2022/01/10 02:00:47;;;;;;;37.00;16.27;;;;;;;1.54;100.00;99678.75;5013698;28;20034;-72
2022/01/10 02:03:12;;;;;;;38.72;14.88;;;;;;;1.49;100.00;99683.16;5015146;28;20029;-72
2022/01/10 02:05:37;;;;;;;36.70;16.23;;;;;;;1.57;100.00;99686.66;5015232;28;20026;-72
2022/01/10 02:08:03;;;;;;;37.78;16.08;;;;;;;1.42;100.00;99696.31;5013906;28;20458;-72
2022/01/10 02:10:28;;;;;;;44.95;16.75;;;;;;;1.47;100.00;99704.19;5013654;28;20032;-72
2022/01/10 02:12:53;;;;;;;38.72;16.25;;;;;;;1.49;100.00;99702.47;5015281;28;20475;-73
2022/01/10 02:15:49;;;;;;;37.15;16.33;;;;;;;1.56;100.00;99695.41;5013992;28;20022;-73
2022/01/10 02:18:16;;;;;;;38.40;16.67;;;;;;;1.52;100.00;99704.22;5015000;28;20036;-73
2022/01/10 02:20:41;;;;;;;41.58;16.55;;;;;;;1.54;100.00;99712.97;5013598;28;20030;-73
2022/01/10 02:23:07;;;;;;;38.42;16.83;;;;;;;1.55;100.00;99710.31;5013750;28;20099;-73
2022/01/10 02:25:32;;;;;;;41.63;16.23;;;;;;;1.41;100.00;99718.25;5013402;28;20438;-72
2022/01/10 02:27:59;;;;;;;39.35;16.85;;;;;;;1.36;100.00;99717.38;5014743;28;20034;-72
2022/01/10 02:30:25;;;;;;;38.08;16.10;;;;;;;1.47;100.00;99719.97;5013331;28;20053;-72
2022/01/10 02:32:51;;;;;;;46.30;18.02;;;;;;;1.29;100.00;99723.53;5014502;28;20161;-72
2022/01/10 02:35:21;;;;;;;44.55;18.23;;;;;;;1.35;100.00;99734.03;5014648;28;20026;-72
2022/01/10 02:37:48;;;;;;;42.38;17.63;;;;;;;1.43;100.00;99734.03;5014623;28;20060;-72
2022/01/10 02:40:15;;;;;;;36.75;16.63;;;;;;;1.41;100.00;99741.06;5013111;28;20037;-72
2022/01/10 02:42:40;;;;;;;44.90;17.80;;;;;;;1.34;100.00;99741.06;5014259;28;20018;-72
2022/01/10 02:45:06;;;;;;;42.45;18.05;;;;;;;1.33;100.00;99751.59;5014470;28;20036;-73
2022/01/10 02:47:31;;;;;;;38.55;17.92;;;;;;;1.42;100.00;99746.31;5012175;28;20479;-72
2022/01/10 02:49:58;;;;;;;44.05;17.85;;;;;;;1.44;100.00;99755.06;5014692;28;20034;-72
2022/01/10 02:52:23;;;;;;;37.40;17.65;;;;;;;1.37;100.00;99758.59;5014296;28;20096;-73
2022/01/10 02:54:48;;;;;;;47.17;17.90;;;;;;;1.41;100.00;99765.63;5014466;28;20421;-73
2022/01/10 02:57:14;;;;;;;37.88;17.10;;;;;;;1.28;100.00;99764.75;5014218;28;20022;-73
2022/01/10 02:59:39;;;;;;;46.63;16.75;;;;;;;1.37;100.00;99769.13;5013889;28;20586;-72
2022/01/10 03:02:07;;;;;;;39.00;16.42;;;;;;;1.27;100.00;99775.25;5012546;28;20021;-72
2022/01/10 03:04:32;;;;;;;35.53;15.30;;;;;;;1.22;100.00;99781.41;5013956;28;20022;-72
2022/01/10 03:06:58;;;;;;;36.97;15.95;;;;;;;1.17;100.00;99788.41;5013996;28;20029;-73
2022/01/10 03:09:24;;;;;;;39.47;16.75;;;;;;;1.06;100.00;99790.13;5013756;28;20448;-72
2022/01/10 03:11:50;;;;;;;45.35;15.75;;;;;;;1.04;100.00;99792.78;5013612;28;20017;-72
2022/01/10 03:14:16;;;;;;;42.25;16.55;;;;;;;0.93;100.00;99795.38;5013944;28;20105;-72
2022/01/10 03:16:41;;;;;;;34.85;15.60;;;;;;;0.94;100.00;99797.16;5013776;28;20552;-72
2022/01/10 03:19:07;;;;;;;37.53;16.00;;;;;;;1.04;100.00;99807.69;5014076;28;20034;-72
2022/01/10 03:21:33;;;;;;;35.22;17.10;;;;;;;0.96;100.00;99810.28;5013501;28;20060;-72
2022/01/10 03:23:59;;;;;;;39.30;17.10;;;;;;;0.87;100.00;99813.78;5013503;28;20499;-72
2022/01/10 03:26:26;;;;;;;41.10;16.75;;;;;;;0.88;100.00;99812.91;5013777;28;20026;-72
2022/01/10 03:28:53;;;;;;;40.65;16.95;;;;;;;0.82;100.00;99820.78;5013506;28;20028;-72
2022/01/10 03:31:18;;;;;;;38.45;16.23;;;;;;;0.83;100.00;99830.41;5013556;28;20014;-72
2022/01/10 03:33:44;;;;;;;40.28;17.50;;;;;;;0.77;100.00;99828.66;5013325;28;20033;-72
2022/01/10 03:36:09;;;;;;;37.35;15.95;;;;;;;0.79;100.00;99824.28;5013521;28;20469;-74
2022/01/10 03:38:35;;;;;;;40.67;16.75;;;;;;;0.74;100.00;99829.53;5013327;28;20164;-73
2022/01/10 03:41:00;;;;;;;36.15;17.35;;;;;;;0.75;100.00;99831.28;5013132;28;20395;-73
2022/01/10 03:43:25;;;;;;;38.03;15.75;;;;;;;0.83;100.00;99836.56;5013953;28;20084;-72
2022/01/10 03:45:51;;;;;;;39.97;16.25;;;;;;;0.75;100.00;99833.00;5013051;28;20391;-72
2022/01/10 03:48:16;;;;;;;34.10;15.40;;;;;;;0.81;100.00;99843.56;5011753;28;20025;-71
2022/01/10 03:50:42;;;;;;;35.45;17.13;;;;;;;1.00;100.00;99839.25;5012932;28;20175;-71
2022/01/10 03:53:07;;;;;;;36.60;17.15;;;;;;;0.90;100.00;99847.97;5011771;28;20099;-71
2022/01/10 03:55:32;;;;;;;42.63;17.50;;;;;;;1.04;100.00;99858.53;5013065;28;20021;-72
2022/01/10 03:57:58;;;;;;;38.92;18.27;;;;;;;0.97;100.00;99856.75;5011049;28;20021;-71
2022/01/10 04:00:23;;;;;;;40.55;17.75;;;;;;;1.02;100.00;99862.03;5011817;28;20037;-76
2022/01/10 04:02:55;;;;;;;39.78;17.63;;;;;;;0.98;100.00;99862.00;5011658;28;20029;-72
2022/01/10 04:05:21;;;;;;;38.80;16.65;;;;;;;0.93;100.00;99871.63;5013339;28;20038;-72
2022/01/10 04:07:46;;;;;;;43.95;16.38;;;;;;;0.96;100.00;99879.53;5012965;28;20030;-72
2022/01/10 04:10:12;;;;;;;39.83;17.33;;;;;;;1.02;100.00;99872.53;5012930;28;20029;-73
2022/01/10 04:12:37;;;;;;;36.03;16.63;;;;;;;1.05;100.00;99875.19;5013042;28;20026;-72
2022/01/10 04:15:03;;;;;;;40.75;18.13;;;;;;;1.01;100.00;99882.16;5013035;28;20018;-73
2022/01/10 04:17:29;;;;;;;41.47;16.95;;;;;;;0.94;100.00;99883.91;5013204;28;20041;-73
2022/01/10 04:19:54;;;;;;;39.67;16.98;;;;;;;0.97;100.00;99888.31;5013127;28;20024;-72
2022/01/10 04:22:19;;;;;;;41.05;17.45;;;;;;;0.93;100.00;99897.91;5012740;28;20475;-72
2022/01/10 04:24:45;;;;;;;32.00;16.23;;;;;;;1.13;100.00;99902.38;5012983;28;20036;-72
2022/01/10 04:27:10;;;;;;;42.25;18.13;;;;;;;1.06;100.00;99900.59;5013050;28;20029;-72
2022/01/10 04:29:35;;;;;;;43.60;18.30;;;;;;;0.98;100.00;99904.06;5012889;28;20033;-72
2022/01/10 04:32:01;;;;;;;41.63;18.65;;;;;;;0.96;100.00;99910.19;5011435;28;20386;-72
2022/01/10 04:34:26;;;;;;;38.83;17.20;;;;;;;0.99;100.00;99915.47;5012810;28;20037;-72
2022/01/10 04:36:52;;;;;;;40.65;18.05;;;;;;;0.97;100.00;99920.75;5012717;28;20033;-73
2022/01/10 04:39:17;;;;;;;44.78;18.08;;;;;;;1.07;100.00;99928.66;5011421;28;20030;-72
2022/01/10 04:41:43;;;;;;;46.20;19.52;;;;;;;1.07;100.00;99937.44;5012625;28;20017;-72
2022/01/10 04:44:08;;;;;;;44.83;18.58;;;;;;;1.10;100.00;99933.94;5012737;28;20034;-72
2022/01/10 04:46:34;;;;;;;33.95;17.50;;;;;;;1.13;100.00;99947.09;5012959;28;20026;-72
2022/01/10 04:49:00;;;;;;;41.60;18.48;;;;;;;1.15;100.00;99937.44;5012802;28;20030;-72
2022/01/10 04:51:28;;;;;;;37.60;17.70;;;;;;;1.17;100.00;99946.22;5012729;28;20044;-72
2022/01/10 04:53:55;;;;;;;37.05;18.67;;;;;;;1.27;100.00;99959.38;5012559;28;20100;-72
2022/01/10 04:56:21;;;;;;;41.97;18.52;;;;;;;1.16;100.00;99954.13;5012421;28;20407;-72
2022/01/10 04:58:48;;;;;;;43.92;18.73;;;;;;;1.24;100.00;99962.03;5012676;28;20030;-72
2022/01/10 05:01:15;;;;;;;47.00;19.05;;;;;;;1.22;100.00;99968.16;5010944;28;20022;-72
2022/01/10 05:03:41;;;;;;;40.50;19.13;;;;;;;1.22;100.00;99970.78;5011044;28;20022;-72
2022/01/10 05:06:06;;;;;;;41.17;17.92;;;;;;;1.16;100.00;99981.28;5012293;28;20389;-73
2022/01/10 05:08:32;;;;;;;34.97;18.13;;;;;;;1.27;100.00;99981.31;5012293;28;20028;-73
2022/01/10 05:10:58;;;;;;;38.65;18.83;;;;;;;1.11;100.00;99983.00;5015786;28;20018;-72
2022/01/10 05:13:24;;;;;;;43.55;18.50;;;;;;;1.15;100.00;99990.06;5014600;28;20030;-72
2022/01/10 05:18:20;;;;;;;40.72;18.75;;;;;;;1.22;100.00;99999.72;5035858;22;20514;-77
2022/01/10 05:20:46;;;;;;;42.90;18.95;;;;;;;1.24;100.00;99998.88;5016359;28;20030;-77
2022/01/10 05:23:12;;;;;;;38.15;17.73;;;;;;;1.20;100.00;100012.00;5015078;28;20076;-78
2022/01/10 05:25:40;;;;;;;42.75;18.60;;;;;;;1.20;100.00;100009.38;5015008;28;20392;-77
2022/01/10 05:28:10;;;;;;;44.03;19.38;;;;;;;1.24;100.00;100019.91;5016667;28;20558;-77
2022/01/10 05:30:36;;;;;;;40.13;18.42;;;;;;;1.19;100.00;100020.75;5016536;28;20018;-77
2022/01/10 05:33:02;;;;;;;39.35;18.60;;;;;;;1.16;100.00;100033.88;5014936;28;20120;-77
2022/01/10 05:35:28;;;;;;;37.95;19.38;;;;;;;1.29;100.00;100033.97;5014828;28;20467;-77
2022/01/10 05:37:53;;;;;;;40.55;19.00;;;;;;;1.25;100.00;100045.31;5016323;28;20041;-77
2022/01/10 05:40:19;;;;;;;41.08;18.67;;;;;;;1.24;100.00;100043.59;5014708;28;20032;-77
2022/01/10 05:42:45;;;;;;;38.53;18.40;;;;;;;1.28;100.00;100059.38;5014678;28;20022;-77
2022/01/10 05:45:11;;;;;;;45.15;18.73;;;;;;;1.32;100.00;100055.00;5016234;28;20022;-77
2022/01/10 05:47:41;;;;;;;40.28;19.17;;;;;;;1.22;100.00;100065.50;5014624;28;20025;-77
2022/01/10 05:50:07;;;;;;;46.53;20.88;;;;;;;1.25;100.00;100069.00;5016009;28;20118;-77
2022/01/10 05:52:33;;;;;;;44.08;20.67;;;;;;;1.18;100.00;100079.50;5015780;28;20076;-77
2022/01/10 05:54:58;;;;;;;43.08;20.48;;;;;;;1.32;100.00;100094.47;5015996;28;20384;-77
2022/01/10 05:57:23;;;;;;;45.50;21.33;;;;;;;1.31;100.00;100095.34;5015939;28;20387;-78
2022/01/10 05:59:48;;;;;;;46.00;20.55;;;;;;;1.18;100.00;100105.81;5016714;28;20034;-77
2022/01/10 06:02:14;;;;;;;45.65;21.00;;;;;;;1.24;100.00;100106.72;5016953;28;20049;-78
2022/01/10 06:04:39;;;;;;;49.75;21.38;;;;;;;1.25;100.00;100113.72;5016296;28;20080;-77
2022/01/10 06:07:04;;;;;;;44.50;21.52;;;;;;;1.25;100.00;100111.09;5020262;28;20033;-77
2022/01/10 06:09:30;;;;;;;46.53;21.35;;;;;;;1.26;100.00;100123.38;5017086;28;20026;-78
2022/01/10 06:11:55;;;;;;;49.80;21.90;;;;;;;1.36;100.00;100129.56;5017070;28;20505;-77
2022/01/10 06:14:20;;;;;;;48.13;22.23;;;;;;;1.24;100.00;100135.66;5016641;28;20026;-77
2022/01/10 06:16:46;;;;;;;47.13;20.95;;;;;;;1.32;100.00;100133.91;5017331;28;20026;-78
2022/01/10 06:19:11;;;;;;;44.30;22.10;;;;;;;1.24;100.00;100135.66;5016648;28;20022;-77
2022/01/10 06:21:36;;;;;;;49.03;22.52;;;;;;;1.25;100.00;100143.53;5015276;28;20026;-78
2022/01/10 06:24:02;;;;;;;48.42;22.25;;;;;;;1.26;100.00;100144.44;5015931;28;20501;-78
2022/01/10 06:26:27;;;;;;;48.13;22.77;;;;;;;1.22;100.00;100154.03;5014173;28;20022;-77
2022/01/10 06:28:52;;;;;;;44.50;21.75;;;;;;;1.16;100.00;100159.28;5016294;28;20041;-78
2022/01/10 06:31:17;;;;;;;46.35;22.40;;;;;;;1.21;100.00;100168.94;5015290;28;20430;-77
2022/01/10 06:33:43;;;;;;;47.72;21.58;;;;;;;1.25;100.00;100166.34;5014154;28;20030;-78
2022/01/10 06:36:09;;;;;;;48.58;22.50;;;;;;;1.19;100.00;100181.19;5015652;28;20391;-77
2022/01/10 06:38:35;;;;;;;54.28;23.88;;;;;;;1.15;100.00;100194.31;5016006;28;20026;-77
2022/01/10 06:41:01;;;;;;;42.65;21.83;;;;;;;1.22;100.00;100197.00;5015302;28;20022;-78
2022/01/10 06:43:26;;;;;;;49.08;23.63;;;;;;;1.21;100.00;100203.13;5016633;28;20034;-77
2022/01/10 06:45:51;;;;;;;48.40;23.38;;;;;;;1.22;100.00;100207.53;5015338;28;20100;-78
2022/01/10 06:48:17;;;;;;;56.42;26.15;;;;;;;1.18;100.00;100215.41;5014775;28;20029;-77
2022/01/10 06:50:46;;;;;;;59.70;28.27;;;;;;;1.19;100.00;100220.66;5014596;28;20022;-77
2022/01/10 06:53:16;;;;;;;62.67;27.95;;;;;;;1.13;100.00;100228.53;5014992;28;20108;-77
2022/01/10 06:55:41;;;;;;;51.97;25.67;;;;;;;1.16;100.00;100232.94;5014665;28;20033;-77
2022/01/10 06:58:06;;;;;;;55.80;25.80;;;;;;;1.13;100.00;100231.16;5014822;28;20088;-77
2022/01/10 07:00:32;;;;;;;51.10;24.80;;;;;;;1.09;100.00;100237.22;5015023;28;20022;-77
2022/01/10 07:02:57;;;;;;;51.42;25.00;;;;;;;1.09;100.00;100245.13;5013313;28;20049;-77
2022/01/10 07:05:22;;;;;;;56.97;24.02;;;;;;;1.16;100.00;100252.19;5014432;28;20137;-77
2022/01/10 07:07:48;;;;;;;49.45;23.45;;;;;;;1.16;100.00;100257.44;5014696;28;20029;-77
2022/01/10 07:10:13;;;;;;;45.70;22.60;;;;;;;1.25;100.00;100253.16;5014575;28;20104;-77
2022/01/10 07:12:38;;;;;;;52.35;24.63;;;;;;;1.15;100.00;100266.22;5014583;28;20092;-77
2022/01/10 07:15:04;;;;;;;44.67;23.67;;;;;;;1.12;100.00;100268.84;5014262;28;20076;-77
2022/01/10 07:17:30;;;;;;;48.28;23.40;;;;;;;1.16;100.00;100285.53;5014101;28;20491;-77
2022/01/10 07:19:55;;;;;;;53.10;24.10;;;;;;;1.16;100.00;100283.75;5014159;28;20044;-77
2022/01/10 07:22:21;;;;;;;54.83;23.65;;;;;;;1.09;100.00;100285.47;5014277;28;20022;-77
2022/01/10 07:24:46;;;;;;;46.70;22.17;;;;;;;1.13;100.00;100296.03;5014178;28;20029;-77
2022/01/10 07:27:11;;;;;;;56.08;23.42;;;;;;;1.07;100.00;100299.47;5014275;28;20064;-77
2022/01/10 07:29:37;;;;;;;42.95;22.60;;;;;;;1.18;100.00;100315.34;5015014;28;20026;-77
2022/01/10 07:32:03;;;;;;;51.28;24.15;;;;;;;1.12;100.00;100318.81;5013863;28;20434;-77
2022/01/10 07:34:28;;;;;;;54.00;23.98;;;;;;;1.06;100.00;100321.34;5013964;28;20026;-77
2022/01/10 07:36:53;;;;;;;43.88;22.67;;;;;;;1.22;100.00;100325.91;5014209;28;20112;-77
2022/01/10 07:39:18;;;;;;;55.47;25.98;;;;;;;1.05;100.00;100331.03;5012516;28;20033;-77
2022/01/10 07:41:45;;;;;;;55.58;24.73;;;;;;;1.13;100.00;100339.00;5012413;28;20438;-77
2022/01/10 07:44:10;;;;;;;53.70;24.55;;;;;;;1.03;100.00;100338.00;5012548;28;20034;-77
2022/01/10 07:46:36;;;;;;;53.97;23.30;;;;;;;1.06;100.00;100348.53;5014132;28;20469;-77
2022/01/10 07:49:01;;;;;;;58.58;25.77;;;;;;;1.04;100.00;100345.03;5013854;28;20538;-77
2022/01/10 07:51:27;;;;;;;54.72;25.95;;;;;;;1.06;100.00;100352.91;5013930;28;20022;-77
2022/01/10 07:53:52;;;;;;;52.70;25.70;;;;;;;1.10;100.00;100360.00;5013654;28;20026;-77
2022/01/10 07:56:18;;;;;;;52.22;26.05;;;;;;;1.05;100.00;100356.44;5012365;28;20126;-77
2022/01/10 07:58:45;;;;;;;49.35;24.92;;;;;;;1.11;100.00;100369.63;5012533;28;20029;-77
2022/01/10 08:01:10;;;;;;;61.58;26.33;;;;;;;1.09;100.00;100368.75;5013621;28;20029;-77
2022/01/10 08:03:35;;;;;;;55.80;25.67;;;;;;;1.08;100.00;100380.16;5013594;28;20030;-77
2022/01/10 08:06:01;;;;;;;55.50;26.35;;;;;;;1.06;100.00;100389.75;5013815;28;20049;-77
2022/01/10 08:08:26;;;;;;;51.13;26.67;;;;;;;1.15;100.00;100392.50;5013463;28;20021;-77
2022/01/10 08:10:52;;;;;;;55.17;27.13;;;;;;;1.14;100.00;100393.34;5013347;28;20022;-77
2022/01/10 08:13:17;;;;;;;57.38;28.02;;;;;;;1.12;100.00;100400.34;5013399;28;20041;-77
2022/01/10 08:15:43;;;;;;;56.53;27.35;;;;;;;1.13;100.00;100407.38;5013620;28;20025;-77
2022/01/10 08:18:08;;;;;;;55.05;26.73;;;;;;;1.06;100.00;100414.31;5013333;28;20594;-77
2022/01/10 08:20:34;;;;;;;64.13;28.48;;;;;;;1.08;100.00;100414.34;5013583;28;20025;-77
2022/01/10 08:22:59;;;;;;;58.50;27.60;;;;;;;1.13;100.00;100423.16;5013231;28;20037;-77
2022/01/10 08:25:24;;;;;;;51.88;25.55;;;;;;;1.17;100.00;100419.69;5013378;28;20076;-77
2022/01/10 08:27:50;;;;;;;54.45;27.20;;;;;;;1.16;100.00;100428.44;5013271;28;20394;-77
2022/01/10 08:30:16;;;;;;;54.80;26.95;;;;;;;1.16;100.00;100438.09;5013189;28;20026;-77
2022/01/10 08:32:41;;;;;;;50.22;25.63;;;;;;;1.18;100.00;100439.00;5013143;28;20398;-77
2022/01/10 08:35:07;;;;;;;54.65;26.35;;;;;;;1.26;100.00;100442.59;5013599;28;20034;-77
2022/01/10 08:37:33;;;;;;;58.22;25.85;;;;;;;1.27;100.00;100446.09;5013479;28;20068;-77
2022/01/10 08:39:58;;;;;;;52.63;27.30;;;;;;;1.27;100.00;100451.34;5013258;28;20033;-78
2022/01/10 08:42:26;;;;;;;65.15;31.00;;;;;;;1.39;100.00;100456.75;5013077;28;20032;-76
2022/01/10 08:44:52;;;;;;;53.20;26.15;;;;;;;1.63;100.00;100462.25;5015633;28;20026;-76
2022/01/10 08:47:19;;;;;;;51.70;24.40;;;;;;;1.64;100.00;100462.28;5015867;28;20025;-77
2022/01/10 08:49:44;;;;;;;42.97;23.63;;;;;;;1.72;100.00;100469.34;5017328;28;20029;-76
2022/01/10 08:52:09;;;;;;;45.75;23.33;;;;;;;1.70;100.00;100471.97;5017490;28;20429;-76
2022/01/10 08:54:35;;;;;;;44.42;22.30;;;;;;;1.86;100.00;100472.09;5016901;28;20030;-77
2022/01/10 08:57:02;;;;;;;45.20;22.02;;;;;;;1.76;100.00;100471.13;5017136;28;20018;-77
2022/01/10 08:59:28;;;;;;;45.38;22.48;;;;;;;1.63;100.00;100478.94;5016715;28;20075;-77
2022/01/10 09:01:55;;;;;;;47.63;24.40;;;;;;;1.48;100.00;100481.41;5016687;28;20104;-77
2022/01/10 09:04:20;;;;;;;46.28;24.17;;;;;;;1.43;100.00;100490.13;5016678;28;20037;-77
2022/01/10 09:06:47;;;;;;;44.53;24.10;;;;;;;1.49;100.00;100497.22;5016945;28;20025;-77
2022/01/10 09:09:13;;;;;;;48.33;24.08;;;;;;;1.56;100.00;100500.78;5016652;28;20079;-77
2022/01/10 09:11:39;;;;;;;47.45;24.55;;;;;;;1.61;100.00;100501.72;5016549;28;20018;-77
2022/01/10 09:14:05;;;;;;;58.13;25.05;;;;;;;1.59;100.00;100500.84;5016819;28;20471;-77
2022/01/10 09:16:30;;;;;;;48.83;23.67;;;;;;;1.60;100.00;100507.84;5016854;28;20034;-77
2022/01/10 09:18:56;;;;;;;51.00;24.35;;;;;;;1.58;100.00;100516.59;5016615;28;20033;-77
2022/01/10 09:21:21;;;;;;;52.35;24.80;;;;;;;1.63;100.00;100514.88;5015002;28;20014;-77
2022/01/10 09:23:46;;;;;;;40.03;22.85;;;;;;;1.62;100.00;100527.19;5016312;28;20025;-77
2022/01/10 09:26:12;;;;;;;46.72;23.35;;;;;;;1.61;100.00;100530.69;5016266;28;20032;-77
2022/01/10 09:28:38;;;;;;;48.10;22.83;;;;;;;1.58;100.00;100530.66;5016540;28;20022;-77
2022/01/10 09:31:03;;;;;;;48.80;25.10;;;;;;;1.60;100.00;100539.44;5016394;28;20044;-77
2022/01/10 09:33:29;;;;;;;46.97;23.75;;;;;;;1.66;100.00;100550.03;5016977;28;20117;-77
2022/01/10 09:35:54;;;;;;;52.28;24.02;;;;;;;1.63;100.00;100550.00;5016170;28;20473;-77
2022/01/10 09:38:19;;;;;;;55.10;26.08;;;;;;;1.66;100.00;100555.31;5016099;28;20429;-77
2022/01/10 09:40:44;;;;;;;49.33;24.80;;;;;;;1.64;100.00;100566.69;5015856;28;20050;-77
2022/01/10 09:43:10;;;;;;;46.70;24.95;;;;;;;1.69;100.00;100564.09;5015970;28;20026;-77
2022/01/10 09:45:36;;;;;;;55.15;26.63;;;;;;;1.69;100.00;100564.09;5015926;28;20018;-77
2022/01/10 09:48:02;;;;;;;49.00;26.63;;;;;;;1.79;100.00;100576.50;5015871;28;20502;-77
2022/01/10 09:50:27;;;;;;;53.17;25.20;;;;;;;1.76;100.00;100576.47;5015849;28;20025;-77
2022/01/10 09:52:53;;;;;;;47.92;25.02;;;;;;;1.77;100.00;100586.16;5015862;28;20020;-77
2022/01/10 09:55:18;;;;;;;46.22;23.77;;;;;;;1.73;100.00;100581.69;5014976;28;20021;-77
2022/01/10 09:57:44;;;;;;;50.97;25.90;;;;;;;1.80;100.00;100588.81;5015347;28;20096;-77
2022/01/10 10:00:10;;;;;;;51.67;25.52;;;;;;;1.84;100.00;100589.72;5014408;28;20526;-77
2022/01/10 10:02:38;;;;;;;50.13;24.30;;;;;;;1.72;100.00;100590.47;5015866;28;20026;-77
2022/01/10 10:05:05;;;;;;;48.63;25.30;;;;;;;1.86;100.00;100591.50;5015556;28;20033;-77
2022/01/10 10:07:32;;;;;;;46.83;25.60;;;;;;;1.92;100.00;100592.44;5015440;28;20507;-77
2022/01/10 10:10:03;;;;;;;46.85;25.95;;;;;;;1.93;100.00;100603.00;5015410;28;20026;-77
2022/01/10 10:12:29;;;;;;;53.20;25.83;;;;;;;1.98;100.00;100600.41;5015772;28;20018;-77
2022/01/10 10:14:54;;;;;;;50.70;26.65;;;;;;;1.97;100.00;100606.53;5014161;28;20446;-77
2022/01/10 10:17:21;;;;;;;47.17;26.27;;;;;;;2.04;100.00;100612.75;5015273;28;20037;-77
2022/01/10 10:19:46;;;;;;;47.22;25.08;;;;;;;2.16;100.00;100618.16;5015217;28;20030;-77
2022/01/10 10:22:15;;;;;;;50.30;25.33;;;;;;;2.12;100.00;100619.88;5015145;28;20029;-77
2022/01/10 10:24:40;;;;;;;48.70;26.20;;;;;;;2.19;100.00;100622.59;5015192;28;20034;-77
2022/01/10 10:27:05;;;;;;;47.40;25.30;;;;;;;2.10;100.00;100624.25;5015188;28;20033;-77
2022/01/10 10:29:31;;;;;;;46.30;24.98;;;;;;;2.16;100.00;100619.91;5013816;28;20025;-77
2022/01/10 10:31:57;;;;;;;49.63;26.60;;;;;;;2.27;100.00;100625.31;5015523;28;20018;-77
2022/01/10 10:34:27;;;;;;;53.78;25.80;;;;;;;2.41;100.00;100633.31;5015448;28;20037;-77
2022/01/10 10:37:08;;;;;;;43.30;23.67;;;;;;;2.20;100.00;100634.88;5013753;28;20025;-77
2022/01/10 10:39:36;;;;;;;50.50;25.70;;;;;;;2.33;100.00;100642.03;5014911;28;20482;-77
2022/01/10 10:42:05;;;;;;;49.40;24.40;;;;;;;2.49;100.00;100644.81;5014854;28;20112;-77
2022/01/10 10:44:31;;;;;;;45.97;23.23;;;;;;;2.50;100.00;100654.47;5013574;28;20033;-77
2022/01/10 10:46:56;;;;;;;48.75;24.85;;;;;;;2.42;100.00;100651.78;5015080;28;20104;-77
2022/01/10 10:49:30;;;;;;;46.15;25.30;;;;;;;2.50;100.00;100658.91;5014962;28;20368;-77
2022/01/10 10:51:57;;;;;;;48.35;25.02;;;;;;;2.49;100.00;100662.41;5015013;28;20084;-77
2022/01/10 10:54:22;;;;;;;43.33;23.90;;;;;;;2.52;100.00;100668.59;5014869;28;20533;-77
2022/01/10 10:56:48;;;;;;;49.63;25.77;;;;;;;2.65;100.00;100669.59;5014891;28;20030;-77
2022/01/10 10:59:13;;;;;;;45.58;24.35;;;;;;;2.63;100.00;100675.72;5013325;28;20475;-77
2022/01/10 11:01:40;;;;;;;45.72;23.98;;;;;;;2.64;100.00;100683.63;5014430;28;20076;-77
2022/01/10 11:04:09;;;;;;;50.45;26.00;;;;;;;2.60;100.00;100675.69;5014527;28;20052;-77
2022/01/10 11:06:35;;;;;;;46.42;26.00;;;;;;;2.63;100.00;100691.53;5014123;28;20026;-77
2022/01/10 11:09:09;;;;;;;49.60;26.67;;;;;;;2.63;100.00;100687.13;5014922;28;20084;-77
2022/01/10 11:11:34;;;;;;;47.88;25.73;;;;;;;2.71;100.00;100692.47;5014625;28;20026;-77
2022/01/10 11:14:01;;;;;;;50.78;26.02;;;;;;;2.68;100.00;100695.09;5014342;28;20163;-77
2022/01/10 11:16:35;;;;;;;52.50;26.45;;;;;;;2.80;100.00;100689.03;5035540;22;20061;-87